Time;durP1;ratioP1;P1;durP2;ratioP2;P2;SDS_P1;SDS_P2;PMS_P1;PMS_P2;Temp;Humidity;BMP_temperature;BMP_pressure;BME280_temperature;BME280_humidity;BME280_pressure;Samples;Min_cycle;Max_cycle;Signal;HPM_P1;HPM_P2
2021/10/08 00:00:23;;;;;;;1.40;0.30;;;17.90;96.70;;;;;;5090169;28;20160;-79
2021/10/08 00:02:51;;;;;;;1.25;0.30;;;17.90;96.70;;;;;;5087152;28;20542;-79
2021/10/08 00:05:19;;;;;;;1.92;0.40;;;17.90;96.70;;;;;;5090160;28;20582;-81
2021/10/08 00:07:47;;;;;;;3.22;0.30;;;17.90;96.70;;;;;;5071390;28;20117;-79
2021/10/08 00:10:16;;;;;;;2.08;0.52;;;17.90;96.70;;;;;;5071828;28;20047;-79
2021/10/08 00:12:44;;;;;;;1.05;0.30;;;17.90;96.70;;;;;;5089092;28;20481;-80
2021/10/08 00:15:13;;;;;;;2.80;0.68;;;17.90;96.70;;;;;;5093082;27;20051;-78
2021/10/08 00:17:41;;;;;;;0.95;0.40;;;17.90;96.70;;;;;;5091306;27;20031;-79
2021/10/08 00:20:10;;;;;;;2.22;0.57;;;17.90;96.70;;;;;;5092065;27;20042;-79
2021/10/08 00:22:40;;;;;;;1.48;0.43;;;17.90;96.70;;;;;;5075640;28;20043;-79
2021/10/08 00:25:09;;;;;;;3.30;0.70;;;17.90;96.70;;;;;;5079795;27;20036;-78
2021/10/08 00:27:37;;;;;;;2.30;0.30;;;17.90;96.70;;;;;;5089088;28;20735;-79
2021/10/08 00:30:07;;;;;;;2.85;0.50;;;17.90;96.70;;;;;;5073531;27;20097;-79
2021/10/08 00:32:36;;;;;;;2.45;0.40;;;17.90;96.70;;;;;;5114621;27;20393;-79
2021/10/08 00:35:05;;;;;;;1.17;0.30;;;17.90;96.70;;;;;;5093177;27;20101;-78
2021/10/08 00:37:34;;;;;;;1.58;0.43;;;17.90;96.70;;;;;;5079604;27;20047;-79
2021/10/08 00:40:05;;;;;;;4.78;0.60;;;17.80;96.70;;;;;;5078689;27;20128;-84
2021/10/08 00:42:33;;;;;;;2.72;0.40;;;17.80;96.70;;;;;;5095038;28;20506;-81
2021/10/08 00:45:01;;;;;;;1.08;0.40;;;17.90;96.70;;;;;;5095168;27;20043;-80
2021/10/08 00:47:29;;;;;;;1.80;0.47;;;17.90;96.70;;;;;;5106081;27;20044;-81
2021/10/08 00:49:59;;;;;;;6.18;0.60;;;17.90;96.70;;;;;;5085533;27;20138;-81
2021/10/08 00:52:28;;;;;;;2.97;0.50;;;17.90;96.70;;;;;;5081739;27;20056;-80
2021/10/08 00:54:56;;;;;;;1.95;0.38;;;17.90;96.70;;;;;;5093157;27;20039;-81
2021/10/08 00:57:25;;;;;;;1.48;0.30;;;17.80;96.70;;;;;;5096948;27;20458;-83
2021/10/08 00:59:53;;;;;;;2.45;0.40;;;17.80;96.70;;;;;;5095797;27;20035;-81
2021/10/08 01:02:22;;;;;;;1.23;0.40;;;17.80;96.70;;;;;;5079254;27;20117;-81
2021/10/08 01:04:56;;;;;;;1.33;0.50;;;17.80;96.70;;;;;;5084834;28;20054;-80
2021/10/08 01:07:25;;;;;;;2.33;0.50;;;17.80;96.70;;;;;;5111225;27;20039;-80
2021/10/08 01:09:53;;;;;;;1.10;0.40;;;17.80;96.70;;;;;;5090978;27;20039;-80
2021/10/08 01:12:22;;;;;;;1.95;0.28;;;17.80;96.70;;;;;;5096140;27;20054;-81
2021/10/08 01:14:50;;;;;;;2.72;0.40;;;17.70;96.70;;;;;;5097770;27;20553;-81
2021/10/08 01:17:19;;;;;;;2.40;0.40;;;17.70;96.70;;;;;;5096226;28;20040;-81
2021/10/08 01:19:53;;;;;;;1.73;0.50;;;17.70;96.70;;;;;;5088221;27;20118;-80
2021/10/08 01:22:23;;;;;;;1.10;0.45;;;17.60;96.70;;;;;;5097870;27;20297;-80
2021/10/08 01:24:52;;;;;;;1.88;0.30;;;17.60;96.70;;;;;;5086100;27;20493;-80
2021/10/08 01:27:22;;;;;;;2.60;0.30;;;17.60;96.70;;;;;;5090220;28;20056;-79
2021/10/08 01:29:57;;;;;;;1.58;0.30;;;17.60;96.70;;;;;;5081093;27;20058;-80
2021/10/08 01:32:37;;;;;;;0.45;0.25;;;17.60;96.70;;;;;;5091525;27;20050;-80
2021/10/08 01:35:08;;;;;;;0.77;0.30;;;17.50;96.70;;;;;;5077351;28;20504;-80
2021/10/08 01:37:40;;;;;;;1.35;0.25;;;17.50;96.70;;;;;;5076952;28;20052;-79
2021/10/08 01:40:10;;;;;;;2.08;0.40;;;17.50;96.70;;;;;;5079414;28;20066;-80
2021/10/08 01:42:42;;;;;;;2.05;0.40;;;17.50;96.70;;;;;;5077624;27;20074;-79
2021/10/08 01:45:13;;;;;;;1.48;0.45;;;17.50;96.70;;;;;;5094806;28;20505;-79
2021/10/08 01:47:42;;;;;;;1.63;0.25;;;17.40;96.70;;;;;;5097680;27;20337;-79
2021/10/08 01:50:12;;;;;;;1.63;0.30;;;17.40;96.70;;;;;;5093209;28;20040;-78
2021/10/08 01:52:44;;;;;;;0.70;0.20;;;17.40;96.70;;;;;;5089155;28;20054;-78
2021/10/08 01:55:14;;;;;;;1.60;0.30;;;17.40;96.70;;;;;;5088795;27;20088;-78
2021/10/08 01:57:51;;;;;;;0.70;0.32;;;17.40;96.70;;;;;;5082485;27;20413;-78
2021/10/08 02:00:19;;;;;;;1.00;0.50;;;17.40;96.70;;;;;;5088404;28;20104;-78
2021/10/08 02:02:58;;;;;;;1.23;0.82;;;17.30;96.70;;;;;;5089787;28;20043;-78
2021/10/08 02:05:26;;;;;;;3.83;0.43;;;17.40;96.70;;;;;;5088678;27;20039;-78
2021/10/08 02:07:56;;;;;;;1.55;0.50;;;17.40;96.70;;;;;;5080748;27;20092;-78
2021/10/08 02:10:31;;;;;;;;;;;17.40;96.70;;;;;;5096868;27;20047;-78
2021/10/08 02:12:59;;;;;;;1.42;0.40;;;17.40;96.70;;;;;;5089923;28;19924;-78
2021/10/08 02:15:27;;;;;;;2.20;0.38;;;17.40;96.70;;;;;;5087859;28;20335;-78
2021/10/08 02:17:56;;;;;;;0.80;0.30;;;17.40;96.70;;;;;;5089690;27;20043;-76
2021/10/08 02:20:25;;;;;;;3.17;0.30;;;17.40;96.70;;;;;;5083028;27;20044;-78
2021/10/08 02:22:56;;;;;;;2.35;0.30;;;17.40;96.70;;;;;;5085831;27;20039;-78
2021/10/08 02:25:24;;;;;;;3.45;0.63;;;17.40;96.70;;;;;;5093043;27;20039;-78
2021/10/08 02:27:52;;;;;;;2.58;0.63;;;17.40;96.70;;;;;;5076311;27;20039;-81
2021/10/08 02:30:21;;;;;;;2.55;1.10;;;17.40;96.70;;;;;;5082941;27;20039;-80
2021/10/08 02:32:50;;;;;;;2.92;0.50;;;17.40;96.70;;;;;;5079223;27;20049;-80
2021/10/08 02:35:18;;;;;;;2.05;0.47;;;17.40;96.70;;;;;;5082778;28;20035;-79
2021/10/08 02:37:47;;;;;;;0.68;0.30;;;17.40;96.70;;;;;;5097089;28;20027;-80
2021/10/08 02:40:17;;;;;;;2.50;0.50;;;17.50;96.70;;;;;;5087306;28;20040;-80
2021/10/08 02:42:45;;;;;;;2.70;0.50;;;17.50;96.70;;;;;;5077311;27;21493;-81
2021/10/08 02:45:15;;;;;;;2.08;0.45;;;17.50;96.70;;;;;;5092748;27;20276;-80
2021/10/08 02:47:43;;;;;;;1.75;0.50;;;17.50;96.70;;;;;;5094673;27;20039;-81
2021/10/08 02:50:11;;;;;;;0.95;0.65;;;17.50;96.70;;;;;;5078441;28;20069;-81
2021/10/08 02:52:40;;;;;;;1.98;0.40;;;17.50;96.70;;;;;;5073669;28;20043;-80
2021/10/08 02:55:11;;;;;;;3.10;1.02;;;17.50;96.70;;;;;;5083134;27;20059;-81
2021/10/08 02:57:41;;;;;;;3.45;0.38;;;17.50;96.70;;;;;;5084139;28;20571;-81
2021/10/08 03:00:11;;;;;;;1.58;0.50;;;17.50;96.70;;;;;;5079095;27;20480;-82
2021/10/08 03:02:40;;;;;;;2.47;0.40;;;17.50;96.70;;;;;;5096865;27;20776;-82
2021/10/08 03:05:09;;;;;;;1.40;0.47;;;17.60;96.70;;;;;;5085184;27;20051;-81
2021/10/08 03:07:37;;;;;;;3.13;0.80;;;17.60;96.70;;;;;;5081613;28;20051;-81
2021/10/08 03:10:07;;;;;;;0.73;0.40;;;17.60;96.70;;;;;;5077215;28;20234;-81
2021/10/08 03:12:38;;;;;;;2.35;0.30;;;17.60;96.70;;;;;;5093148;28;20117;-82
2021/10/08 03:15:10;;;;;;;1.00;0.40;;;17.60;96.70;;;;;;5083407;28;20411;-81
2021/10/08 03:17:41;;;;;;;2.50;0.52;;;17.60;96.70;;;;;;5099046;28;20154;-80
2021/10/08 03:20:10;;;;;;;1.90;0.40;;;17.60;96.70;;;;;;5076400;28;20051;-79
2021/10/08 03:22:39;;;;;;;3.90;1.27;;;17.50;96.70;;;;;;5082177;28;20042;-80
2021/10/08 03:25:09;;;;;;;1.65;0.40;;;17.50;96.70;;;;;;5094581;28;20044;-80
2021/10/08 03:27:39;;;;;;;2.60;0.55;;;17.50;96.70;;;;;;5097673;28;20055;-81
2021/10/08 03:30:12;;;;;;;1.88;0.93;;;17.50;96.70;;;;;;5090004;28;20051;-79
2021/10/08 03:32:41;;;;;;;2.10;0.50;;;17.50;96.70;;;;;;5077206;28;20270;-81
2021/10/08 03:35:10;;;;;;;2.47;0.70;;;17.50;96.70;;;;;;5077520;28;20067;-79
2021/10/08 03:38:07;;;;;;;3.08;0.75;;;17.50;96.70;;;;;;5093147;28;20130;-80
2021/10/08 03:40:29;;;;;;;2.22;0.60;;;17.50;96.70;;;;;;5097019;28;20036;-80
2021/10/08 03:43:01;;;;;;;0.70;0.40;;;17.50;96.70;;;;;;5086720;28;20042;-80
2021/10/08 03:45:32;;;;;;;1.13;0.55;;;17.50;96.70;;;;;;5075191;28;20493;-79
2021/10/08 03:50:35;;;;;;;2.35;0.70;;;17.60;96.70;;;;;;5100882;27;20077;-80
2021/10/08 03:53:06;;;;;;;2.10;0.40;;;17.50;96.70;;;;;;5095035;27;20047;-80
2021/10/08 03:55:34;;;;;;;0.88;0.40;;;17.50;96.70;;;;;;5095679;28;20052;-81
2021/10/08 03:58:02;;;;;;;2.85;0.70;;;17.50;96.70;;;;;;5074326;28;20044;-78
2021/10/08 04:00:33;;;;;;;1.75;0.40;;;17.50;96.70;;;;;;5075093;28;20042;-83
2021/10/08 04:03:11;;;;;;;1.52;0.50;;;17.60;96.70;;;;;;5100921;28;20048;-81
2021/10/08 04:05:41;;;;;;;0.73;0.50;;;17.60;96.70;;;;;;5088783;28;20051;-80
2021/10/08 04:08:10;;;;;;;0.82;0.40;;;17.60;96.70;;;;;;5093215;28;20803;-81
2021/10/08 04:10:45;;;;;;;2.22;0.68;;;17.70;96.70;;;;;;5082137;28;20040;-80
2021/10/08 04:13:14;;;;;;;1.50;0.50;;;17.70;96.70;;;;;;5089626;28;20043;-82
2021/10/08 04:15:44;;;;;;;1.25;0.60;;;17.70;96.70;;;;;;5099707;28;20150;-81
2021/10/08 04:18:13;;;;;;;2.75;0.77;;;17.70;96.70;;;;;;5094856;28;20052;-80
2021/10/08 04:20:43;;;;;;;1.13;0.50;;;17.70;96.70;;;;;;5078834;28;20117;-80
2021/10/08 04:23:13;;;;;;;2.00;0.40;;;17.80;96.70;;;;;;5098619;28;20052;-80
2021/10/08 04:25:42;;;;;;;3.22;0.38;;;17.70;96.70;;;;;;5089197;28;20044;-81
2021/10/08 04:28:12;;;;;;;4.72;0.80;;;17.70;96.70;;;;;;5075378;28;20047;-82
2021/10/08 04:30:40;;;;;;;2.30;0.50;;;17.70;96.70;;;;;;5097335;28;20105;-80
2021/10/08 04:33:14;;;;;;;1.70;0.40;;;17.80;96.70;;;;;;5094719;28;20040;-81
2021/10/08 04:35:47;;;;;;;1.25;0.50;;;17.70;96.70;;;;;;5083948;28;20708;-81
2021/10/08 04:38:16;;;;;;;2.03;0.60;;;17.70;96.70;;;;;;5093275;28;20051;-80
2021/10/08 04:40:46;;;;;;;3.60;0.50;;;17.70;96.70;;;;;;5072569;28;20040;-80
2021/10/08 04:43:14;;;;;;;3.42;0.40;;;17.70;96.70;;;;;;5088705;28;20517;-81
2021/10/08 04:45:42;;;;;;;2.40;0.43;;;17.70;96.70;;;;;;5097604;28;20032;-80
2021/10/08 04:48:11;;;;;;;1.38;0.50;;;17.70;96.70;;;;;;5085889;28;20055;-80
2021/10/08 04:50:42;;;;;;;1.60;0.35;;;17.70;96.70;;;;;;5091602;28;20040;-80
2021/10/08 04:53:15;;;;;;;0.98;0.55;;;17.70;96.70;;;;;;5100235;28;20574;-80
2021/10/08 04:55:45;;;;;;;1.45;0.30;;;17.60;96.70;;;;;;5093465;28;20048;-80
2021/10/08 04:58:15;;;;;;;0.52;0.30;;;17.60;96.70;;;;;;5086760;28;20053;-78
2021/10/08 05:00:45;;;;;;;0.50;0.20;;;17.70;96.70;;;;;;5094094;28;20412;-80
2021/10/08 05:03:15;;;;;;;2.80;0.43;;;17.70;96.70;;;;;;5076059;28;20146;-79
2021/10/08 05:05:52;;;;;;;1.13;0.50;;;17.70;96.70;;;;;;5075763;28;20134;-79
2021/10/08 05:08:33;;;;;;;;;;;17.70;96.70;;;;;;5072924;28;20138;-81
2021/10/08 05:11:03;;;;;;;1.80;0.30;;;17.60;96.70;;;;;;5075074;28;19950;-80
2021/10/08 05:13:32;;;;;;;2.28;0.43;;;17.60;96.70;;;;;;5086447;28;20044;-79
2021/10/08 05:16:00;;;;;;;0.57;0.28;;;17.60;96.70;;;;;;5087979;28;20047;-80
2021/10/08 05:18:28;;;;;;;2.20;0.60;;;17.60;96.70;;;;;;5073805;28;20556;-78
2021/10/08 05:20:58;;;;;;;1.05;0.20;;;17.60;96.70;;;;;;5072192;28;20134;-79
2021/10/08 05:23:26;;;;;;;1.70;0.60;;;17.60;96.70;;;;;;5075427;28;20085;-79
2021/10/08 05:25:55;;;;;;;1.08;0.20;;;17.60;96.70;;;;;;5069808;28;20062;-80
2021/10/08 05:28:26;;;;;;;0.65;0.25;;;17.60;96.70;;;;;;5086744;28;20035;-78
2021/10/08 05:30:56;;;;;;;0.88;0.30;;;17.60;96.70;;;;;;5081149;28;20044;-79
2021/10/08 05:33:26;;;;;;;1.25;0.40;;;17.60;96.70;;;;;;5073545;28;20052;-80
2021/10/08 05:35:54;;;;;;;0.40;0.30;;;17.60;96.70;;;;;;5085331;28;20401;-78
2021/10/08 05:38:24;;;;;;;4.05;0.50;;;17.60;96.70;;;;;;5091452;28;20039;-79
2021/10/08 05:40:54;;;;;;;2.58;0.40;;;17.60;96.70;;;;;;5092220;28;20116;-79
2021/10/08 05:43:24;;;;;;;2.85;0.32;;;17.60;96.70;;;;;;5087546;28;20062;-79
2021/10/08 05:45:58;;;;;;;0.90;0.32;;;17.50;96.70;;;;;;5096890;28;20616;-78
2021/10/08 05:48:29;;;;;;;0.95;0.30;;;17.60;96.70;;;;;;5069706;28;20505;-79
2021/10/08 05:50:57;;;;;;;1.55;0.35;;;17.60;96.70;;;;;;5087779;28;20305;-79
2021/10/08 05:53:28;;;;;;;1.10;0.35;;;17.60;96.70;;;;;;5074025;28;20401;-80
2021/10/08 05:55:56;;;;;;;2.45;0.30;;;17.60;96.70;;;;;;5092559;28;20059;-79
2021/10/08 05:58:24;;;;;;;0.75;0.43;;;17.60;96.70;;;;;;5074547;28;20131;-81
2021/10/08 06:00:53;;;;;;;2.00;0.40;;;17.60;96.70;;;;;;5091133;28;20090;-80
2021/10/08 06:03:21;;;;;;;2.63;0.50;;;17.60;96.70;;;;;;5090959;28;20067;-81
2021/10/08 06:05:49;;;;;;;1.33;0.50;;;17.60;96.70;;;;;;5089948;28;20043;-82
2021/10/08 06:08:18;;;;;;;0.73;0.25;;;17.60;96.70;;;;;;5079183;28;20485;-83
2021/10/08 06:10:51;;;;;;;1.17;0.30;;;17.70;96.70;;;;;;5091180;28;20039;-83
2021/10/08 06:13:21;;;;;;;2.60;0.40;;;17.60;96.70;;;;;;5086702;28;20525;-78
2021/10/08 06:15:50;;;;;;;1.38;0.47;;;17.70;96.70;;;;;;5093658;28;20044;-80
2021/10/08 06:18:18;;;;;;;2.58;0.38;;;17.70;96.70;;;;;;5091366;28;20050;-79
2021/10/08 06:20:47;;;;;;;0.80;0.30;;;17.70;96.70;;;;;;5074312;28;20062;-82
2021/10/08 06:23:18;;;;;;;1.20;0.43;;;17.70;96.70;;;;;;5091225;28;20043;-84
2021/10/08 06:25:46;;;;;;;1.38;0.50;;;17.70;96.70;;;;;;5089296;28;20047;-81
2021/10/08 06:28:16;;;;;;;2.35;0.50;;;17.70;96.70;;;;;;5076302;28;20115;-79
2021/10/08 06:30:44;;;;;;;0.90;0.40;;;17.80;96.70;;;;;;5086421;28;20036;-79
2021/10/08 06:33:13;;;;;;;1.25;0.40;;;17.80;96.70;;;;;;5085991;28;20055;-80
2021/10/08 06:35:42;;;;;;;1.70;0.52;;;17.80;96.70;;;;;;5088723;28;20036;-79
2021/10/08 06:38:11;;;;;;;1.27;0.57;;;17.80;96.70;;;;;;5073987;28;20507;-81
2021/10/08 06:40:41;;;;;;;1.50;0.50;;;17.90;96.70;;;;;;5091036;28;20150;-80
2021/10/08 06:43:15;;;;;;;1.15;0.50;;;17.90;96.70;;;;;;5078776;28;20043;-80
2021/10/08 06:45:58;;;;;;;1.15;0.40;;;17.90;96.70;;;;;;5087842;28;20035;-81
2021/10/08 06:48:28;;;;;;;3.03;0.38;;;18.00;96.70;;;;;;5072541;28;20604;-80
2021/10/08 06:50:57;;;;;;;1.17;0.52;;;18.10;96.70;;;;;;5066779;28;20040;-81
2021/10/08 06:53:26;;;;;;;2.05;0.50;;;18.20;96.70;;;;;;5075259;28;20044;-81
2021/10/08 06:55:54;;;;;;;1.58;0.57;;;18.30;96.70;;;;;;5088588;28;20047;-80
2021/10/08 06:58:43;;;;;;;0.73;0.40;;;18.30;96.70;;;;;;5087831;28;20051;-80
2021/10/08 07:01:12;;;;;;;1.10;0.40;;;18.40;96.70;;;;;;5086768;28;20055;-80
2021/10/08 07:03:41;;;;;;;3.20;0.50;;;18.50;96.70;;;;;;5090067;28;20513;-81
2021/10/08 07:06:09;;;;;;;2.45;0.60;;;18.50;96.70;;;;;;5088754;28;20056;-82
2021/10/08 07:08:39;;;;;;;1.33;0.60;;;18.50;96.70;;;;;;5092300;28;20131;-82
2021/10/08 07:11:09;;;;;;;5.30;0.80;;;18.50;96.70;;;;;;5074762;28;20105;-81
2021/10/08 07:13:37;;;;;;;1.65;0.60;;;18.50;96.70;;;;;;5088907;28;20094;-80
2021/10/08 07:16:07;;;;;;;4.10;0.60;;;18.50;96.70;;;;;;5086748;28;20494;-79
2021/10/08 07:18:44;;;;;;;1.55;0.70;;;18.50;96.70;;;;;;5100069;28;20390;-79
2021/10/08 07:21:13;;;;;;;2.03;0.80;;;18.50;96.70;;;;;;5082581;28;20040;-79
2021/10/08 07:23:45;;;;;;;1.63;0.75;;;18.50;96.70;;;;;;5077610;28;20032;-80
2021/10/08 07:26:15;;;;;;;1.10;0.73;;;18.50;96.70;;;;;;5091083;28;20047;-80
2021/10/08 07:28:44;;;;;;;2.58;0.70;;;18.50;96.70;;;;;;5086262;28;20050;-80
2021/10/08 07:31:14;;;;;;;2.72;0.80;;;18.50;96.70;;;;;;5101396;28;20604;-82
2021/10/08 07:33:43;;;;;;;1.13;0.75;;;18.50;96.70;;;;;;5087025;28;20130;-81
2021/10/08 07:36:12;;;;;;;3.13;0.93;;;18.50;96.70;;;;;;5088407;28;20132;-80
2021/10/08 07:38:40;;;;;;;1.13;0.90;;;18.60;96.70;;;;;;5096165;28;20507;-80
2021/10/08 07:41:09;;;;;;;2.45;0.80;;;18.60;96.70;;;;;;5097550;28;20462;-80
2021/10/08 07:43:40;;;;;;;1.98;1.20;;;18.60;96.70;;;;;;5087469;28;20040;-80
2021/10/08 07:46:09;;;;;;;1.95;1.25;;;18.60;96.70;;;;;;5102845;28;20513;-80
2021/10/08 07:48:40;;;;;;;2.72;1.23;;;18.60;96.70;;;;;;5081685;28;20134;-79
2021/10/08 07:51:08;;;;;;;2.03;1.20;;;18.60;96.70;;;;;;5092967;28;20051;-80
2021/10/08 07:53:36;;;;;;;5.18;1.60;;;18.70;96.70;;;;;;5080181;28;20047;-81
2021/10/08 07:56:04;;;;;;;4.50;1.50;;;18.70;96.70;;;;;;5111638;27;20594;-80
2021/10/08 07:58:33;;;;;;;2.03;1.20;;;18.70;96.70;;;;;;5097424;27;20071;-81
2021/10/08 08:01:02;;;;;;;3.13;1.40;;;18.70;96.70;;;;;;5109551;27;20085;-79
2021/10/08 08:03:30;;;;;;;1.90;1.20;;;18.70;96.70;;;;;;5112241;27;20043;-79
2021/10/08 08:06:00;;;;;;;2.20;1.10;;;18.70;96.70;;;;;;5090825;28;20050;-79
2021/10/08 08:08:28;;;;;;;4.00;1.52;;;18.70;96.70;;;;;;5084529;27;20051;-79
2021/10/08 08:10:56;;;;;;;4.18;1.80;;;18.70;96.70;;;;;;5114250;27;20768;-80
2021/10/08 08:13:24;;;;;;;6.05;1.60;;;18.70;96.70;;;;;;5090199;27;20353;-80
2021/10/08 08:15:53;;;;;;;4.65;1.67;;;18.70;96.70;;;;;;5083022;27;20522;-80
2021/10/08 08:18:21;;;;;;;3.78;1.65;;;18.60;96.70;;;;;;5097868;27;20146;-79
2021/10/08 08:20:49;;;;;;;5.43;1.40;;;18.60;96.70;;;;;;5093871;27;20134;-79
2021/10/08 08:23:19;;;;;;;3.58;1.60;;;18.60;96.70;;;;;;5094851;28;20032;-81
2021/10/08 08:25:49;;;;;;;4.85;1.73;;;18.70;96.70;;;;;;5092207;27;20046;-82
2021/10/08 08:28:17;;;;;;;2.83;1.30;;;18.80;96.70;;;;;;5114604;27;20061;-83
2021/10/08 08:30:45;;;;;;;2.58;1.60;;;18.80;96.70;;;;;;5095794;28;20045;-81
2021/10/08 08:33:14;;;;;;;4.93;1.48;;;18.90;96.70;;;;;;5086493;27;20044;-81
2021/10/08 08:35:42;;;;;;;3.45;1.40;;;18.90;96.70;;;;;;5096227;28;20404;-79
2021/10/08 08:38:10;;;;;;;5.65;1.38;;;19.00;96.70;;;;;;5090855;27;20107;-79
2021/10/08 08:40:40;;;;;;;2.78;1.65;;;19.00;96.70;;;;;;5086058;28;20039;-79
2021/10/08 08:43:08;;;;;;;8.07;1.85;;;19.10;96.70;;;;;;5116152;27;20039;-78
2021/10/08 08:45:36;;;;;;;1.77;1.50;;;19.00;96.70;;;;;;5095599;27;20050;-79
2021/10/08 08:48:06;;;;;;;6.68;1.40;;;19.10;96.70;;;;;;5090737;28;20031;-79
2021/10/08 08:50:36;;;;;;;4.18;1.80;;;19.10;96.70;;;;;;5110106;27;20117;-79
2021/10/08 08:53:05;;;;;;;3.95;1.60;;;19.10;96.70;;;;;;5089942;27;20047;-79
2021/10/08 08:55:35;;;;;;;6.88;1.58;;;19.10;96.70;;;;;;5079277;27;20134;-82
2021/10/08 08:58:04;;;;;;;4.18;1.67;;;19.10;96.70;;;;;;5096813;28;20050;-80
2021/10/08 09:00:33;;;;;;;3.00;1.60;;;19.10;96.70;;;;;;5081970;28;20523;-81
2021/10/08 09:03:03;;;;;;;2.42;1.50;;;19.10;96.70;;;;;;5092043;28;20096;-81
2021/10/08 09:05:33;;;;;;;4.07;1.90;;;19.10;96.70;;;;;;5095412;27;20050;-80
2021/10/08 09:08:04;;;;;;;3.03;1.60;;;19.10;96.70;;;;;;5098892;27;20043;-80
2021/10/08 09:10:34;;;;;;;6.20;1.70;;;19.10;96.70;;;;;;5090782;28;20313;-81
2021/10/08 09:13:04;;;;;;;4.07;1.90;;;19.10;96.70;;;;;;5109769;27;20040;-80
2021/10/08 09:15:45;;;;;;;2.65;1.73;;;19.10;96.70;;;;;;5073697;28;20058;-80
2021/10/08 09:18:15;;;;;;;5.63;1.50;;;19.30;96.70;;;;;;5079474;28;20055;-80
2021/10/08 09:21:08;;;;;;;4.40;1.67;;;19.40;96.70;;;;;;5113337;27;20032;-80
2021/10/08 09:23:38;;;;;;;2.47;1.60;;;19.40;96.70;;;;;;5095975;27;20059;-81
2021/10/08 09:26:15;;;;;;;4.90;2.08;;;19.50;96.70;;;;;;5092910;27;20047;-81
2021/10/08 09:28:55;;;;;;;2.95;1.60;;;19.50;96.70;;;;;;5099855;27;20031;-81
2021/10/08 09:31:27;;;;;;;4.50;1.80;;;19.50;96.70;;;;;;5111120;27;20043;-83
2021/10/08 09:34:11;;;;;;;4.22;1.60;;;19.50;96.70;;;;;;5090883;27;20039;-82
2021/10/08 09:36:39;;;;;;;4.03;1.40;;;19.60;96.70;;;;;;5077701;28;20131;-83
2021/10/08 09:39:17;;;;;;;5.03;1.48;;;19.70;96.70;;;;;;5101000;27;20133;-83
2021/10/08 09:41:49;;;;;;;5.07;1.85;;;19.70;96.70;;;;;;5100448;27;20045;-81
2021/10/08 09:44:19;;;;;;;4.93;1.50;;;19.70;96.70;;;;;;5094988;27;20040;-80
2021/10/08 09:46:47;;;;;;;4.57;1.67;;;19.70;96.70;;;;;;5065627;28;20048;-82
2021/10/08 09:49:20;;;;;;;4.63;1.67;;;19.60;96.70;;;;;;5074534;28;20611;-82
2021/10/08 09:51:49;;;;;;;5.28;1.40;;;19.60;96.70;;;;;;5058260;28;20099;-82
2021/10/08 09:54:17;;;;;;;5.68;1.45;;;19.60;96.70;;;;;;5045540;28;20059;-80
2021/10/08 09:56:59;;;;;;;3.08;1.23;;;19.60;96.70;;;;;;5061763;28;20040;-80
2021/10/08 09:59:39;;;;;;;29.65;3.42;;;19.70;96.70;;;;;;5073978;28;20052;-83
2021/10/08 10:02:07;;;;;;;14.57;2.88;;;19.80;96.70;;;;;;5062993;28;20048;-82
2021/10/08 10:04:48;;;;;;;1.98;1.20;;;19.80;96.70;;;;;;5058175;28;20332;-81
2021/10/08 10:07:18;;;;;;;3.22;1.30;;;19.80;96.70;;;;;;5073895;28;20052;-82
2021/10/08 10:09:50;;;;;;;5.82;1.20;;;19.80;96.70;;;;;;5045475;28;20047;-81
2021/10/08 10:12:36;;;;;;;;;;;19.80;96.70;;;;;;5058633;28;20060;-81
2021/10/08 10:15:08;;;;;;;3.20;1.20;;;19.80;96.70;;;;;;5072840;28;19924;-80
2021/10/08 10:17:38;;;;;;;3.35;1.10;;;19.80;96.70;;;;;;5068324;28;20475;-80
2021/10/08 10:20:09;;;;;;;2.08;1.42;;;19.90;96.70;;;;;;5091524;28;20088;-78
2021/10/08 10:22:37;;;;;;;10.95;1.35;;;19.90;96.70;;;;;;5088259;28;20071;-82
2021/10/08 10:25:09;;;;;;;2.05;1.20;;;19.90;96.70;;;;;;5087221;28;20047;-82
2021/10/08 10:27:39;;;;;;;2.03;1.10;;;20.10;96.70;;;;;;5079378;28;20043;-82
2021/10/08 10:30:10;;;;;;;5.57;1.17;;;20.20;96.70;;;;;;5092587;28;20055;-82
2021/10/08 10:32:45;;;;;;;3.47;1.30;;;20.00;96.70;;;;;;5076089;28;20089;-80
2021/10/08 10:35:43;;;;;;;3.53;1.05;;;19.90;96.70;;;;;;5088554;28;20144;-81
2021/10/08 10:38:35;;;;;;;4.68;1.27;;;20.00;96.70;;;;;;5080472;28;20052;-80
2021/10/08 10:41:22;;;;;;;3.25;1.30;;;20.00;96.70;;;;;;5087870;28;20112;-80
2021/10/08 10:43:55;;;;;;;7.78;1.35;;;19.90;96.70;;;;;;5092717;28;20337;-80
2021/10/08 10:49:33;;;;;;;3.83;1.58;;;19.90;96.70;;;;;;5095394;28;20473;-80
2021/10/08 10:52:24;;;;;;;1.92;1.20;;;19.90;96.70;;;;;;5054829;28;20066;-81
2021/10/08 10:55:09;;;;;;;4.32;1.23;;;20.00;96.70;;;;;;5081584;28;20151;-81
2021/10/08 10:57:49;;;;;;;2.03;1.20;;;20.00;96.70;;;;;;5094815;28;20040;-80
2021/10/08 11:00:25;;;;;;;3.17;1.30;;;20.10;96.70;;;;;;5083397;28;20044;-80
2021/10/08 11:03:07;;;;;;;4.40;1.30;;;20.10;96.70;;;;;;5101726;28;20069;-80
2021/10/08 11:05:38;;;;;;;2.55;1.05;;;20.20;96.70;;;;;;5076456;28;20120;-80
2021/10/08 11:08:16;;;;;;;1.63;1.10;;;20.20;96.70;;;;;;5084253;28;20040;-81
2021/10/08 11:10:46;;;;;;;1.75;1.10;;;20.30;96.70;;;;;;5087467;28;20104;-81
2021/10/08 11:13:30;;;;;;;3.00;1.05;;;20.30;96.70;;;;;;5099140;28;20460;-81
2021/10/08 11:16:02;;;;;;;1.45;1.13;;;20.30;96.70;;;;;;5087513;28;20035;-80
2021/10/08 11:18:46;;;;;;;4.13;1.33;;;20.30;96.70;;;;;;5090647;28;20520;-81
2021/10/08 11:21:45;;;;;;;2.90;0.95;;;20.20;96.70;;;;;;5088633;28;20032;-80
2021/10/08 11:24:22;;;;;;;1.92;0.95;;;20.20;96.70;;;;;;5085068;28;20063;-81
2021/10/08 11:26:51;;;;;;;1.95;1.02;;;20.20;96.70;;;;;;5089541;28;20050;-81
2021/10/08 11:29:21;;;;;;;1.65;0.90;;;20.10;96.70;;;;;;5092273;28;20039;-81
2021/10/08 11:31:59;;;;;;;3.40;1.00;;;20.00;96.70;;;;;;5086043;28;20079;-81
2021/10/08 11:34:29;;;;;;;2.45;0.90;;;20.00;96.70;;;;;;5080296;28;20078;-80
2021/10/08 11:36:58;;;;;;;3.90;1.20;;;20.00;96.70;;;;;;5089618;28;20413;-80
2021/10/08 11:39:28;;;;;;;4.75;1.30;;;19.90;96.70;;;;;;5085668;28;20101;-80
2021/10/08 11:42:05;;;;;;;2.75;1.00;;;19.90;96.70;;;;;;5086383;28;20039;-82
2021/10/08 11:44:53;;;;;;;2.35;0.88;;;20.10;96.70;;;;;;5080887;28;20058;-82
2021/10/08 11:47:28;;;;;;;3.45;1.20;;;20.60;96.70;;;;;;5080368;28;20048;-80
2021/10/08 11:52:29;;;;;;;3.83;1.20;;;21.20;96.70;;;;;;5087100;28;20044;-80
2021/10/08 11:55:23;;;;;;;3.97;1.40;;;21.40;96.70;;;;;;5087264;28;20082;-81
2021/10/08 11:57:55;;;;;;;4.10;1.10;;;21.60;96.70;;;;;;5096806;28;20048;-81
2021/10/08 12:00:26;;;;;;;3.95;1.00;;;21.70;96.50;;;;;;5090351;28;20044;-81
2021/10/08 12:02:56;;;;;;;4.47;1.27;;;21.60;96.40;;;;;;5092819;28;20063;-82
2021/10/08 12:05:26;;;;;;;1.98;0.88;;;21.90;96.60;;;;;;5085509;28;20170;-81
2021/10/08 12:08:01;;;;;;;4.13;0.90;;;22.00;96.10;;;;;;5073122;28;20059;-81
2021/10/08 12:10:30;;;;;;;4.05;0.90;;;22.00;96.00;;;;;;5089944;28;20048;-81
2021/10/08 12:12:59;;;;;;;3.85;1.25;;;22.00;95.70;;;;;;5078704;28;20040;-81
2021/10/08 12:15:30;;;;;;;2.83;1.10;;;22.10;95.80;;;;;;5096128;28;20095;-80
2021/10/08 12:18:02;;;;;;;4.90;0.93;;;22.10;95.50;;;;;;5089809;28;20459;-81
2021/10/08 12:20:34;;;;;;;4.00;1.13;;;21.90;95.20;;;;;;5092172;28;20048;-82
2021/10/08 12:23:21;;;;;;;4.80;1.20;;;21.90;95.40;;;;;;5100312;28;20458;-81
2021/10/08 12:25:52;;;;;;;3.05;1.17;;;22.20;96.20;;;;;;5096243;28;20605;-81
2021/10/08 12:28:22;;;;;;;5.60;1.65;;;22.20;95.00;;;;;;5087021;28;20063;-81
2021/10/08 12:30:56;;;;;;;2.38;0.80;;;22.20;95.70;;;;;;5078564;28;20134;-81
2021/10/08 12:33:27;;;;;;;1.90;0.90;;;22.20;95.30;;;;;;5094688;28;20039;-81
2021/10/08 12:36:16;;;;;;;1.52;0.75;;;22.40;95.50;;;;;;5079270;28;20040;-81
2021/10/08 12:38:55;;;;;;;3.38;0.85;;;22.40;94.60;;;;;;5093680;28;20137;-80
2021/10/08 12:41:27;;;;;;;2.92;0.75;;;22.20;95.10;;;;;;5092325;28;20045;-81
2021/10/08 12:44:05;;;;;;;4.38;1.63;;;21.90;95.60;;;;;;5078202;28;20071;-81
2021/10/08 12:46:36;;;;;;;3.78;0.65;;;21.70;95.80;;;;;;5092929;28;20173;-81
2021/10/08 12:49:05;;;;;;;2.25;0.85;;;21.40;96.00;;;;;;5093829;28;20046;-81
2021/10/08 12:51:47;;;;;;;3.08;0.82;;;21.40;96.50;;;;;;5087863;28;20047;-81
2021/10/08 12:54:18;;;;;;;4.60;1.20;;;21.70;96.30;;;;;;5091683;28;20066;-80
2021/10/08 12:56:47;;;;;;;7.40;0.93;;;21.70;96.00;;;;;;5088600;28;20040;-81
2021/10/08 12:59:15;;;;;;;1.92;0.73;;;21.70;96.60;;;;;;5085806;28;20039;-81
2021/10/08 13:01:56;;;;;;;10.98;1.48;;;22.10;96.10;;;;;;5089070;28;20048;-80
2021/10/08 13:04:24;;;;;;;4.70;0.93;;;22.20;95.40;;;;;;5075642;28;20123;-81
2021/10/08 13:07:18;;;;;;;3.55;1.20;;;22.10;95.50;;;;;;5082433;28;20390;-81
2021/10/08 13:10:08;;;;;;;2.58;0.80;;;22.00;95.00;;;;;;5074106;28;20058;-80
2021/10/08 13:12:55;;;;;;;4.35;0.80;;;22.00;95.30;;;;;;5095293;28;20040;-81
2021/10/08 13:15:26;;;;;;;2.83;0.82;;;22.20;95.60;;;;;;5092802;28;20139;-80
2021/10/08 13:18:03;;;;;;;4.63;1.00;;;22.30;94.90;;;;;;5089852;28;20372;-80